NEW HOGAN LAKE (NHG)

Elevation: 554' · CALAVERAS R basin · Operator: US Army Corps of Engineers

Provisional data, subject to change.
Query executed Friday at 11:44:01   clock

Select a sensor type for a plot of data.
Note: Reservoir Flows are daily averages.

Earlier

Date RES ELE    STORAGE    RES CHG    TOC STO    ABV TOC    OUTFLOW    INFLOW    FNF    PPT INC    TEMP MN    TEMP MX   
 FEET   AF   AF   AF   AF   CFS   CFS   CFS   INCHES   DEG F   DEG F  
04/07/2016 661.10 138215 107 254014 -115799 19 88 88 0.00 13 26
04/08/2016 661.14 138322 107 257025 -118703 20 86 86 0.00 13 22
04/09/2016 661.36 138911 589 247023 -108112 20 320 320 1.63 13 15
04/10/2016 661.53 139367 456 249363 -109996 20 256 256 0.14 12 17
04/11/2016 661.52 139340 -27 252729 -113389 152 151 151 0.00 12 22
04/12/2016 661.35 138884 -456 256320 -117436 324 106 106 0.00 10 21
04/13/2016 661.27 138670 -214 259874 -121204 201 108 108 0.00 8 20
04/14/2016 661.26 138643 -27 261800 -123157 112 112 112 0.31 9 17
04/15/2016 661.26 138643 0 265197 -126680 88 104 104 0.00 5 21
04/16/2016 661.26 138643 0 268312 -129816 69 87 87 0.01 10 24
04/17/2016 661.27 138670 27 271308 -132805 62 95 95 0.01 11 29
04/18/2016 661.25 138616 -54 274595 -135979 79 72 72 0.00 12 29
04/19/2016 661.22 138536 -80 278085 -139549 101 80 80 0.00 12 29
04/20/2016 661.17 138402 -134 281492 -143090 104 56 56 0.00 13 28
04/21/2016 661.14 138322 -80 284447 -146125 85 62 62 0.00 12 25
04/22/2016 661.19 138456 134 282194 -140211 68 142 142 0.72 11 16
04/23/2016 661.22 138536 80 284599 -143715 55 110 110 0.01 9 20
04/24/2016 661.25 138616 80 287996 -147151 61 116 116 0.00 10 20
04/25/2016 661.23 138563 -53 291440 -152877 72 62 62 0.00 6 19
04/26/2016 661.20 138483 -80 294651 -156168 96 70 70 0.00 7 20
04/27/2016 661.18 138429 -54 296692 -158263 116 100 100 0.20 8 19
04/28/2016 661.15 138349 -80 298733 -160384 110 87 87 0.03 7 24
04/29/2016 661.11 138242 -107 300773 -162531 113 76 76 0.00 11 24
04/30/2016 661.03 138028 -214 302814 -164786 120 35 35 0.02 8 28
05/01/2016 660.98 137895 -133 304855 -166960 114 70 70 0.01 13 29
05/02/2016 660.94 137788 -107 306896 -169108 103 70 70 0.00 14 29
05/03/2016 660.89 137655 -133 308937 -171282 111 59 59 0.00 12 28
05/04/2016 660.82 137468 -187 310978 -173510 124 43 43 0.01 14 25
05/05/2016 660.75 137281 -187 313018 -175737 130 43 43 0.00 12 18
05/06/2016 -- -- -- -- -- -- -- -- -- -- --

Later | Latest

Warning! This data is preliminary and subject to revision.

Show NHG Map | Plot NHG Data | 1 Month NHG Data | Real-Time NHG Data | NHG Info